Dk Ione — 3ETX — position and weather

sailwx.info

Track history (hours):
 
Tides and Currents Weather Stations Pressure Air Temp Water Temp Dewpoint Dewpoint Depression Visibility Wind Speed Wind Dir Waves Ship Positions

Dk Ione

Last reported at 2015-Apr-29 18:26 UTC. Time now 2015-Jul-02 00:58 UTC.
Position N 29°52' W 089°57'.
Warning: this ship's position is months out of date.

Length 196 m; draft 11.5 m.

Type: Cargo ship. MMSI: 353245000.

Date/timePositionNaut miles runAvg speedWind from/ knotsBaromVisibWave heightAir tempDewpointWater temp
2015-Apr-29 18:26N 29°52' W 089°57'7 6.8
2015-Apr-29 17:23N 29°57' W 090°02'6 6.7
2015-Apr-29 16:33N 29°57' W 090°09'55 8.7
2015-Apr-29 10:14N 30°13' W 091°10'5 6.6
2015-Apr-29 09:24N 30°17' W 091°13'4 4.7
2015-Apr-29 08:33N 30°21' W 091°11'5 5.2
2015-Apr-29 07:33N 30°26' W 091°12'0 0.0
2015-Apr-29 06:31N 30°26' W 091°12'0 0.0
2015-Apr-29 05:31N 30°26' W 091°12'0 0.0
2015-Apr-29 04:31N 30°26' W 091°12'0 0.0
2015-Apr-29 03:31N 30°26' W 091°12'0 0.0
2015-Apr-29 02:28N 30°26' W 091°12'0 0.0
2015-Apr-29 01:28N 30°26' W 091°12'0 0.0
2015-Apr-29 00:28N 30°26' W 091°12'0 0.0
2015-Apr-28 23:28N 30°26' W 091°12'0 0.0
2015-Apr-28 22:28N 30°26' W 091°12'0 0.0
2015-Apr-28 21:28N 30°26' W 091°12'0 0.0
2015-Apr-28 20:22N 30°26' W 091°12'0 0.0
2015-Apr-28 19:28N 30°26' W 091°12'0 0.0
2015-Apr-28 18:31N 30°26' W 091°12'0 0.0
2015-Apr-28 17:16N 30°26' W 091°12'0 0.0
2015-Apr-28 16:28N 30°26' W 091°12'0 0.0
2015-Apr-28 13:16N 30°26' W 091°12'0 0.0
2015-Apr-28 12:28N 30°26' W 091°12'0 0.0
2015-Apr-28 11:28N 30°26' W 091°12'0 0.0
2015-Apr-28 10:04N 30°26' W 091°12'0 0.0
2015-Apr-28 09:28N 30°26' W 091°12'0 0.0
2015-Apr-28 08:28N 30°26' W 091°12'0 0.0
2015-Apr-28 07:22N 30°26' W 091°12'0 0.0
2015-Apr-28 06:16N 30°26' W 091°12'0 0.0
2015-Apr-28 05:28N 30°26' W 091°12'0 0.0
2015-Apr-28 04:28N 30°26' W 091°12'0 0.0
2015-Apr-28 03:28N 30°26' W 091°12'0 0.0
2015-Apr-28 02:31N 30°26' W 091°12'0 0.0
2015-Apr-28 01:22N 30°26' W 091°12'0 0.0
2015-Apr-28 00:28N 30°26' W 091°12'0 0.0
2015-Apr-27 23:31N 30°26' W 091°12'0 0.0
2015-Apr-27 22:22N 30°26' W 091°12'0 0.0
2015-Apr-27 21:28N 30°26' W 091°12'0 0.0
2015-Apr-27 20:28N 30°26' W 091°12'0 0.0
2015-Apr-27 19:28N 30°26' W 091°12'0 0.0
2015-Apr-27 18:28N 30°26' W 091°12'0 0.0
2015-Apr-27 17:28N 30°26' W 091°12'0 0.0
2015-Apr-27 15:28N 30°26' W 091°12'0 0.0
2015-Apr-27 14:28N 30°26' W 091°12'0 0.0
2015-Apr-27 12:28N 30°26' W 091°12'0 0.0
2015-Apr-27 11:22N 30°26' W 091°12'0 0.0
2015-Apr-27 10:28N 30°26' W 091°12'0 0.0
2015-Apr-27 09:22N 30°26' W 091°12'0 0.0
2015-Apr-27 08:28N 30°26' W 091°12'0 0.0
2015-Apr-27 07:28N 30°26' W 091°12'0 0.0
2015-Apr-27 06:28N 30°26' W 091°12'0 0.0
2015-Apr-27 05:28N 30°26' W 091°12'0 0.0
2015-Apr-27 04:28N 30°26' W 091°12'0 0.0
2015-Apr-27 03:28N 30°26' W 091°12'0 0.0
2015-Apr-27 02:31N 30°26' W 091°12'0 0.0
2015-Apr-27 01:31N 30°26' W 091°12'0 0.0
2015-Apr-27 00:28N 30°26' W 091°12'0 0.0
2015-Apr-26 23:28N 30°26' W 091°12'0 0.0
2015-Apr-26 22:28N 30°26' W 091°12'0 0.0
2015-Apr-26 21:28N 30°26' W 091°12'0 0.0
2015-Apr-26 19:28N 30°26' W 091°12'0 0.0
2015-Apr-26 18:28N 30°26' W 091°12'0 0.0
2015-Apr-26 16:28N 30°26' W 091°12'0 0.0
2015-Apr-26 15:28N 30°26' W 091°12'0 0.0
2015-Apr-26 14:28N 30°26' W 091°12'0 0.0
2015-Apr-26 13:28N 30°26' W 091°12'0 0.0
2015-Apr-26 12:34N 30°26' W 091°12'0 0.0
2015-Apr-26 11:28N 30°26' W 091°12'0 0.0
2015-Apr-26 09:28N 30°26' W 091°12'0 0.0
2015-Apr-26 08:34N 30°26' W 091°12'0 0.0
2015-Apr-26 07:31N 30°26' W 091°12'0 0.0
2015-Apr-26 06:28N 30°26' W 091°12'0 0.0
2015-Apr-26 05:28N 30°26' W 091°12'0 0.0
2015-Apr-26 04:28N 30°26' W 091°12'0 0.0
2015-Apr-26 03:28N 30°26' W 091°12'0 0.0
2015-Apr-26 02:28N 30°26' W 091°12'0 0.0
2015-Apr-26 01:28N 30°26' W 091°12'0 0.0
2015-Apr-26 00:33N 30°26' W 091°12'0 0.0
2015-Apr-25 23:28N 30°26' W 091°12'0 0.0
2015-Apr-25 22:34N 30°26' W 091°12'0 0.0
2015-Apr-25 21:34N 30°26' W 091°12'0 0.0
2015-Apr-25 20:33N 30°26' W 091°12'0 0.0
2015-Apr-25 19:34N 30°26' W 091°12'0 0.0
2015-Apr-25 18:30N 30°26' W 091°12'0 0.0
2015-Apr-25 17:34N 30°26' W 091°12'0 0.0
2015-Apr-25 16:33N 30°26' W 091°12'0 0.0
2015-Apr-25 15:33N 30°26' W 091°12'0 0.0
2015-Apr-25 14:33N 30°26' W 091°12'0 0.0
2015-Apr-25 13:33N 30°26' W 091°12'0 0.0
2015-Apr-25 12:30N 30°26' W 091°12'0 0.0
2015-Apr-25 11:34N 30°26' W 091°12'0 0.0
2015-Apr-25 10:27N 30°26' W 091°12'0 0.0
2015-Apr-25 09:33N 30°26' W 091°12'0 0.0
2015-Apr-25 08:33N 30°26' W 091°12'0 0.0
2015-Apr-25 07:33N 30°26' W 091°12'0 0.0
2015-Apr-25 06:33N 30°26' W 091°12'0 0.0
2015-Apr-25 05:33N 30°26' W 091°12'0 0.0
2015-Apr-25 04:33N 30°26' W 091°12'0 0.0
2015-Apr-25 03:33N 30°26' W 091°12'0 0.0
2015-Apr-25 02:33N 30°26' W 091°12'0 0.0
2015-Apr-25 01:33N 30°26' W 091°12'0 0.0
2015-Apr-25 00:33N 30°26' W 091°12'0 0.0
2015-Apr-24 23:33N 30°26' W 091°12'0 0.0
2015-Apr-24 22:33N 30°26' W 091°12'0 0.0
2015-Apr-24 21:33N 30°26' W 091°12'0 0.0
2015-Apr-24 20:30N 30°26' W 091°12'0 0.0
2015-Apr-24 19:33N 30°26' W 091°12'0 0.0
2015-Apr-24 18:33N 30°26' W 091°12'0 0.0
2015-Apr-24 17:33N 30°26' W 091°12'0 0.0
2015-Apr-24 16:33N 30°26' W 091°12'0 0.0
2015-Apr-24 15:33N 30°26' W 091°12'2 1.6
2015-Apr-24 14:33N 30°24' W 091°12'0 0.0
2015-Apr-24 13:28N 30°24' W 091°12'0 0.0
2015-Apr-24 12:28N 30°24' W 091°12'0 0.0
2015-Apr-24 11:31N 30°24' W 091°12'0 0.0
2015-Apr-24 10:31N 30°24' W 091°12'0 0.0
2015-Apr-24 09:31N 30°24' W 091°12'0 0.0
2015-Apr-24 08:31N 30°24' W 091°12'0 0.0
2015-Apr-24 07:31N 30°24' W 091°12'0 0.0
2015-Apr-24 06:28N 30°24' W 091°12'0 0.0
2015-Apr-24 05:28N 30°24' W 091°12'0 0.0
2015-Apr-24 04:31N 30°24' W 091°12'0 0.0
2015-Apr-24 03:31N 30°24' W 091°12'0 0.0
2015-Apr-24 02:31N 30°24' W 091°12'0 0.0
2015-Apr-24 01:31N 30°24' W 091°12'0 0.0
2015-Apr-24 00:28N 30°24' W 091°12'0 0.0
2015-Apr-23 23:19N 30°24' W 091°12'0 0.0
2015-Apr-23 22:28N 30°24' W 091°12'0 0.0
2015-Apr-23 21:28N 30°24' W 091°12'0 0.0
2015-Apr-23 20:28N 30°24' W 091°12'0 0.0
2015-Apr-23 19:28N 30°24' W 091°12'0 0.0
2015-Apr-23 18:31N 30°24' W 091°12'0 0.0
2015-Apr-23 17:31N 30°24' W 091°12'0 0.0
2015-Apr-23 16:28N 30°24' W 091°12'0 0.0
2015-Apr-23 15:31N 30°24' W 091°12'0 0.0
2015-Apr-23 14:28N 30°24' W 091°12'0 0.0
2015-Apr-23 13:31N 30°24' W 091°12'0 0.0
2015-Apr-23 12:31N 30°24' W 091°12'0 0.0
2015-Apr-23 11:31N 30°24' W 091°12'0 0.0
2015-Apr-23 10:28N 30°24' W 091°12'0 0.0
2015-Apr-23 09:31N 30°24' W 091°12'0 0.0
2015-Apr-23 08:31N 30°24' W 091°12'0 0.0
2015-Apr-23 07:31N 30°24' W 091°12'0 0.0
2015-Apr-23 06:31N 30°24' W 091°12'0 0.0
2015-Apr-23 05:31N 30°24' W 091°12'0 0.0
2015-Apr-23 04:31N 30°24' W 091°12'0 0.0
2015-Apr-23 03:31N 30°24' W 091°12'0 0.0
2015-Apr-23 02:28N 30°24' W 091°12'0 0.0
2015-Apr-23 01:31N 30°24' W 091°12'0 0.0
2015-Apr-23 00:28N 30°24' W 091°12'0 0.0
2015-Apr-22 23:31N 30°24' W 091°12'0 0.0
2015-Apr-22 22:28N 30°24' W 091°12'0 0.0
2015-Apr-22 21:31N 30°24' W 091°12'  
Track history (hours):
 
Tides and Currents Weather Stations Pressure Air Temp Water Temp Dewpoint Dewpoint Depression Visibility Wind Speed Wind Dir Waves Ship Positions

Dk Ione

Last reported at 2015-Apr-29 18:26 UTC. Time now 2015-Jul-02 00:58 UTC.
Position N 29°52' W 089°57'.
Warning: this ship's position is months out of date.

Length 196 m; draft 11.5 m.

Type: Cargo ship. MMSI: 353245000.

Date/timePositionNaut miles runAvg speedWind from/ knotsBaromVisibWave heightAir tempDewpointWater temp
2015-Apr-29 18:26N 29°52' W 089°57'7 6.8
2015-Apr-29 17:23N 29°57' W 090°02'6 6.7
2015-Apr-29 16:33N 29°57' W 090°09'55 8.7
2015-Apr-29 10:14N 30°13' W 091°10'5 6.6
2015-Apr-29 09:24N 30°17' W 091°13'4 4.7
2015-Apr-29 08:33N 30°21' W 091°11'5 5.2
2015-Apr-29 07:33N 30°26' W 091°12'0 0.0
2015-Apr-29 06:31N 30°26' W 091°12'0 0.0
2015-Apr-29 05:31N 30°26' W 091°12'0 0.0
2015-Apr-29 04:31N 30°26' W 091°12'0 0.0
2015-Apr-29 03:31N 30°26' W 091°12'0 0.0
2015-Apr-29 02:28N 30°26' W 091°12'0 0.0
2015-Apr-29 01:28N 30°26' W 091°12'0 0.0
2015-Apr-29 00:28N 30°26' W 091°12'0 0.0
2015-Apr-28 23:28N 30°26' W 091°12'0 0.0
2015-Apr-28 22:28N 30°26' W 091°12'0 0.0
2015-Apr-28 21:28N 30°26' W 091°12'0 0.0
2015-Apr-28 20:22N 30°26' W 091°12'0 0.0
2015-Apr-28 19:28N 30°26' W 091°12'0 0.0
2015-Apr-28 18:31N 30°26' W 091°12'0 0.0
2015-Apr-28 17:16N 30°26' W 091°12'0 0.0
2015-Apr-28 16:28N 30°26' W 091°12'0 0.0
2015-Apr-28 13:16N 30°26' W 091°12'0 0.0
2015-Apr-28 12:28N 30°26' W 091°12'0 0.0
2015-Apr-28 11:28N 30°26' W 091°12'0 0.0
2015-Apr-28 10:04N 30°26' W 091°12'0 0.0
2015-Apr-28 09:28N 30°26' W 091°12'0 0.0
2015-Apr-28 08:28N 30°26' W 091°12'0 0.0
2015-Apr-28 07:22N 30°26' W 091°12'0 0.0
2015-Apr-28 06:16N 30°26' W 091°12'0 0.0
2015-Apr-28 05:28N 30°26' W 091°12'0 0.0
2015-Apr-28 04:28N 30°26' W 091°12'0 0.0
2015-Apr-28 03:28N 30°26' W 091°12'0 0.0
2015-Apr-28 02:31N 30°26' W 091°12'0 0.0
2015-Apr-28 01:22N 30°26' W 091°12'0 0.0
2015-Apr-28 00:28N 30°26' W 091°12'0 0.0
2015-Apr-27 23:31N 30°26' W 091°12'0 0.0
2015-Apr-27 22:22N 30°26' W 091°12'0 0.0
2015-Apr-27 21:28N 30°26' W 091°12'0 0.0
2015-Apr-27 20:28N 30°26' W 091°12'0 0.0
2015-Apr-27 19:28N 30°26' W 091°12'0 0.0
2015-Apr-27 18:28N 30°26' W 091°12'0 0.0
2015-Apr-27 17:28N 30°26' W 091°12'0 0.0
2015-Apr-27 15:28N 30°26' W 091°12'0 0.0
2015-Apr-27 14:28N 30°26' W 091°12'0 0.0
2015-Apr-27 12:28N 30°26' W 091°12'0 0.0
2015-Apr-27 11:22N 30°26' W 091°12'0 0.0
2015-Apr-27 10:28N 30°26' W 091°12'0 0.0
2015-Apr-27 09:22N 30°26' W 091°12'0 0.0
2015-Apr-27 08:28N 30°26' W 091°12'0 0.0
2015-Apr-27 07:28N 30°26' W 091°12'0 0.0
2015-Apr-27 06:28N 30°26' W 091°12'0 0.0
2015-Apr-27 05:28N 30°26' W 091°12'0 0.0
2015-Apr-27 04:28N 30°26' W 091°12'0 0.0
2015-Apr-27 03:28N 30°26' W 091°12'0 0.0
2015-Apr-27 02:31N 30°26' W 091°12'0 0.0
2015-Apr-27 01:31N 30°26' W 091°12'0 0.0
2015-Apr-27 00:28N 30°26' W 091°12'0 0.0
2015-Apr-26 23:28N 30°26' W 091°12'0 0.0
2015-Apr-26 22:28N 30°26' W 091°12'0 0.0
2015-Apr-26 21:28N 30°26' W 091°12'0 0.0
2015-Apr-26 19:28N 30°26' W 091°12'0 0.0
2015-Apr-26 18:28N 30°26' W 091°12'0 0.0
2015-Apr-26 16:28N 30°26' W 091°12'0 0.0
2015-Apr-26 15:28N 30°26' W 091°12'0 0.0
2015-Apr-26 14:28N 30°26' W 091°12'0 0.0
2015-Apr-26 13:28N 30°26' W 091°12'0 0.0
2015-Apr-26 12:34N 30°26' W 091°12'0 0.0
2015-Apr-26 11:28N 30°26' W 091°12'0 0.0
2015-Apr-26 09:28N 30°26' W 091°12'0 0.0
2015-Apr-26 08:34N 30°26' W 091°12'0 0.0
2015-Apr-26 07:31N 30°26' W 091°12'0 0.0
2015-Apr-26 06:28N 30°26' W 091°12'0 0.0
2015-Apr-26 05:28N 30°26' W 091°12'0 0.0
2015-Apr-26 04:28N 30°26' W 091°12'0 0.0
2015-Apr-26 03:28N 30°26' W 091°12'0 0.0
2015-Apr-26 02:28N 30°26' W 091°12'0 0.0
2015-Apr-26 01:28N 30°26' W 091°12'0 0.0
2015-Apr-26 00:33N 30°26' W 091°12'0 0.0
2015-Apr-25 23:28N 30°26' W 091°12'0 0.0
2015-Apr-25 22:34N 30°26' W 091°12'0 0.0
2015-Apr-25 21:34N 30°26' W 091°12'0 0.0
2015-Apr-25 20:33N 30°26' W 091°12'0 0.0
2015-Apr-25 19:34N 30°26' W 091°12'0 0.0
2015-Apr-25 18:30N 30°26' W 091°12'0 0.0
2015-Apr-25 17:34N 30°26' W 091°12'0 0.0
2015-Apr-25 16:33N 30°26' W 091°12'0 0.0
2015-Apr-25 15:33N 30°26' W 091°12'0 0.0
2015-Apr-25 14:33N 30°26' W 091°12'0 0.0
2015-Apr-25 13:33N 30°26' W 091°12'0 0.0
2015-Apr-25 12:30N 30°26' W 091°12'0 0.0
2015-Apr-25 11:34N 30°26' W 091°12'0 0.0
2015-Apr-25 10:27N 30°26' W 091°12'0 0.0
2015-Apr-25 09:33N 30°26' W 091°12'0 0.0
2015-Apr-25 08:33N 30°26' W 091°12'0 0.0
2015-Apr-25 07:33N 30°26' W 091°12'0 0.0
2015-Apr-25 06:33N 30°26' W 091°12'0 0.0
2015-Apr-25 05:33N 30°26' W 091°12'0 0.0
2015-Apr-25 04:33N 30°26' W 091°12'0 0.0
2015-Apr-25 03:33N 30°26' W 091°12'0 0.0
2015-Apr-25 02:33N 30°26' W 091°12'0 0.0
2015-Apr-25 01:33N 30°26' W 091°12'0 0.0
2015-Apr-25 00:33N 30°26' W 091°12'0 0.0
2015-Apr-24 23:33N 30°26' W 091°12'0 0.0
2015-Apr-24 22:33N 30°26' W 091°12'0 0.0
2015-Apr-24 21:33N 30°26' W 091°12'0 0.0
2015-Apr-24 20:30N 30°26' W 091°12'0 0.0
2015-Apr-24 19:33N 30°26' W 091°12'0 0.0
2015-Apr-24 18:33N 30°26' W 091°12'0 0.0
2015-Apr-24 17:33N 30°26' W 091°12'0 0.0
2015-Apr-24 16:33N 30°26' W 091°12'0 0.0
2015-Apr-24 15:33N 30°26' W 091°12'2 1.6
2015-Apr-24 14:33N 30°24' W 091°12'0 0.0
2015-Apr-24 13:28N 30°24' W 091°12'0 0.0
2015-Apr-24 12:28N 30°24' W 091°12'0 0.0
2015-Apr-24 11:31N 30°24' W 091°12'0 0.0
2015-Apr-24 10:31N 30°24' W 091°12'0 0.0
2015-Apr-24 09:31N 30°24' W 091°12'0 0.0
2015-Apr-24 08:31N 30°24' W 091°12'0 0.0
2015-Apr-24 07:31N 30°24' W 091°12'0 0.0
2015-Apr-24 06:28N 30°24' W 091°12'0 0.0
2015-Apr-24 05:28N 30°24' W 091°12'0 0.0
2015-Apr-24 04:31N 30°24' W 091°12'0 0.0
2015-Apr-24 03:31N 30°24' W 091°12'0 0.0
2015-Apr-24 02:31N 30°24' W 091°12'0 0.0
2015-Apr-24 01:31N 30°24' W 091°12'0 0.0
2015-Apr-24 00:28N 30°24' W 091°12'0 0.0
2015-Apr-23 23:19N 30°24' W 091°12'0 0.0
2015-Apr-23 22:28N 30°24' W 091°12'0 0.0
2015-Apr-23 21:28N 30°24' W 091°12'0 0.0
2015-Apr-23 20:28N 30°24' W 091°12'0 0.0
2015-Apr-23 19:28N 30°24' W 091°12'0 0.0
2015-Apr-23 18:31N 30°24' W 091°12'0 0.0
2015-Apr-23 17:31N 30°24' W 091°12'0 0.0
2015-Apr-23 16:28N 30°24' W 091°12'0 0.0
2015-Apr-23 15:31N 30°24' W 091°12'0 0.0
2015-Apr-23 14:28N 30°24' W 091°12'0 0.0
2015-Apr-23 13:31N 30°24' W 091°12'0 0.0
2015-Apr-23 12:31N 30°24' W 091°12'0 0.0
2015-Apr-23 11:31N 30°24' W 091°12'0 0.0
2015-Apr-23 10:28N 30°24' W 091°12'0 0.0
2015-Apr-23 09:31N 30°24' W 091°12'0 0.0
2015-Apr-23 08:31N 30°24' W 091°12'0 0.0
2015-Apr-23 07:31N 30°24' W 091°12'0 0.0
2015-Apr-23 06:31N 30°24' W 091°12'0 0.0
2015-Apr-23 05:31N 30°24' W 091°12'0 0.0
2015-Apr-23 04:31N 30°24' W 091°12'0 0.0
2015-Apr-23 03:31N 30°24' W 091°12'0 0.0
2015-Apr-23 02:28N 30°24' W 091°12'0 0.0
2015-Apr-23 01:31N 30°24' W 091°12'0 0.0
2015-Apr-23 00:28N 30°24' W 091°12'0 0.0
2015-Apr-22 23:31N 30°24' W 091°12'0 0.0
2015-Apr-22 22:28N 30°24' W 091°12'0 0.0
2015-Apr-22 21:31N 30°24' W 091°12'  

Dump ship's entire track history